Time,TemperatureF,DewpointF,PressureIn,WindDirection,WindDirectionDegrees,WindSpeedMPH,WindSpeedGustMPH,Humidity,HourlyPrecipIn,Conditions,Clouds,dailyrainin,SoftwareType,DateUTC
2013-06-29 00:13:00,62.1,61.2,29.37,South,180,0.0,-999.0,97,-99.99,,,0.00,Acu-Link.com,2013-06-29 04:13:00,
2013-06-29 00:28:00,62.2,61.4,29.37,NE,45,0.0,-999.0,97,-99.99,,,0.00,Acu-Link.com,2013-06-29 04:28:00,
2013-06-29 00:44:00,62.2,61.4,29.36,NW,315,0.0,-999.0,97,-99.99,,,0.00,Acu-Link.com,2013-06-29 04:44:00,
2013-06-29 00:59:00,62.2,61.4,29.36,NW,315,0.0,-999.0,97,-99.99,,,0.00,Acu-Link.com,2013-06-29 04:59:00,
2013-06-29 01:14:00,62.1,61.2,29.36,NW,315,0.0,-999.0,97,-99.99,,,0.00,Acu-Link.com,2013-06-29 05:14:00,
2013-06-29 01:29:00,62.1,61.2,29.36,NW,315,0.0,-999.0,97,-99.99,,,0.00,Acu-Link.com,2013-06-29 05:29:00,
2013-06-29 01:44:00,62.1,61.2,29.35,NW,315,0.0,-999.0,97,-99.99,,,0.00,Acu-Link.com,2013-06-29 05:44:00,
2013-06-29 02:00:00,62.1,61.2,29.36,NE,45,0.0,-999.0,97,-99.99,,,0.00,Acu-Link.com,2013-06-29 06:00:00,
2013-06-29 02:15:00,62.1,61.5,29.34,North,0,1.6,-999.0,98,-99.99,,,0.04,Acu-Link.com,2013-06-29 06:15:00,
2013-06-29 02:30:00,62.1,61.5,29.34,West,270,0.0,-999.0,98,-99.99,,,0.07,Acu-Link.com,2013-06-29 06:30:00,
2013-06-29 02:45:00,62.1,61.5,29.34,NNE,22,0.0,-999.0,98,-99.99,,,0.09,Acu-Link.com,2013-06-29 06:45:00,
2013-06-29 03:01:00,62.1,61.5,29.35,West,270,0.0,-999.0,98,-99.99,,,0.14,Acu-Link.com,2013-06-29 07:01:00,
2013-06-29 03:16:00,62.1,61.5,29.35,West,270,0.0,-999.0,98,-99.99,,,0.17,Acu-Link.com,2013-06-29 07:16:00,
2013-06-29 03:31:00,62.1,61.5,29.34,NNW,337,0.0,-999.0,98,-99.99,,,0.22,Acu-Link.com,2013-06-29 07:31:00,
2013-06-29 03:46:00,62.1,61.5,29.34,South,180,0.0,-999.0,98,-99.99,,,0.22,Acu-Link.com,2013-06-29 07:46:00,
2013-06-29 04:02:00,61.9,61.3,29.34,WSW,247,0.0,-999.0,98,-99.99,,,0.22,Acu-Link.com,2013-06-29 08:02:00,
2013-06-29 04:17:00,61.9,61.3,29.34,WSW,247,0.0,-999.0,98,-99.99,,,0.22,Acu-Link.com,2013-06-29 08:17:00,
2013-06-29 04:33:00,61.9,61.3,29.34,WSW,247,0.0,-999.0,98,-99.99,,,0.22,Acu-Link.com,2013-06-29 08:33:00,
2013-06-29 04:48:00,61.9,61.3,29.34,WSW,247,0.0,-999.0,98,-99.99,,,0.22,Acu-Link.com,2013-06-29 08:48:00,
2013-06-29 05:03:00,61.9,61.3,29.34,North,0,0.0,-999.0,98,-99.99,,,0.22,Acu-Link.com,2013-06-29 09:03:00,
2013-06-29 05:18:00,61.9,61.3,29.35,NNW,337,0.0,-999.0,98,-99.99,,,0.22,Acu-Link.com,2013-06-29 09:18:00,
2013-06-29 05:33:00,62.1,61.5,29.35,South,180,0.0,-999.0,98,-99.99,,,0.22,Acu-Link.com,2013-06-29 09:33:00,
2013-06-29 05:48:00,62.1,61.5,29.35,South,180,1.1,-999.0,98,-99.99,,,0.24,Acu-Link.com,2013-06-29 09:48:00,
2013-06-29 06:04:00,62.1,61.5,29.35,North,0,0.0,-999.0,98,-99.99,,,0.24,Acu-Link.com,2013-06-29 10:04:00,
2013-06-29 06:19:00,62.1,61.5,29.35,NNE,22,0.0,-999.0,98,-99.99,,,0.24,Acu-Link.com,2013-06-29 10:19:00,
2013-06-29 06:34:00,62.1,61.5,29.35,ESE,112,0.0,-999.0,98,-99.99,,,0.24,Acu-Link.com,2013-06-29 10:34:00,
2013-06-29 06:49:00,62.2,61.7,29.36,ESE,112,0.0,-999.0,98,-99.99,,,0.24,Acu-Link.com,2013-06-29 10:49:00,
2013-06-29 07:05:00,62.4,61.8,29.36,NNW,337,0.0,-999.0,98,-99.99,,,0.24,Acu-Link.com,2013-06-29 11:05:00,
2013-06-29 07:20:00,62.4,61.8,29.36,South,180,2.7,-999.0,98,-99.99,,,0.24,Acu-Link.com,2013-06-29 11:20:00,
2013-06-29 07:35:00,62.4,61.8,29.36,WNW,292,0.0,-999.0,98,-99.99,,,0.37,Acu-Link.com,2013-06-29 11:35:00,
2013-06-29 07:50:00,62.4,61.8,29.37,South,180,1.6,-999.0,98,-99.99,,,0.52,Acu-Link.com,2013-06-29 11:50:00,
2013-06-29 08:06:00,62.6,62.0,29.37,West,270,0.0,-999.0,98,-99.99,,,0.63,Acu-Link.com,2013-06-29 12:06:00,
2013-06-29 08:21:00,62.6,62.0,29.37,NE,45,0.0,-999.0,98,-99.99,,,0.69,Acu-Link.com,2013-06-29 12:21:00,
2013-06-29 08:36:00,62.8,62.2,29.37,NNE,22,0.0,-999.0,98,-99.99,,,0.81,Acu-Link.com,2013-06-29 12:36:00,
2013-06-29 08:51:00,63.1,62.6,29.37,SW,225,0.0,-999.0,98,-99.99,,,0.84,Acu-Link.com,2013-06-29 12:51:00,
2013-06-29 09:06:00,63.5,62.9,29.38,NNE,22,0.0,-999.0,98,-99.99,,,0.85,Acu-Link.com,2013-06-29 13:06:00,
2013-06-29 09:22:00,64.0,63.2,29.38,North,0,0.0,-999.0,97,-99.99,,,0.87,Acu-Link.com,2013-06-29 13:22:00,
2013-06-29 09:37:00,64.4,62.9,29.38,NNE,22,0.0,-999.0,95,-99.99,,,0.87,Acu-Link.com,2013-06-29 13:37:00,
2013-06-29 09:52:00,64.9,62.9,29.38,SSE,157,0.0,-999.0,93,-99.99,,,0.87,Acu-Link.com,2013-06-29 13:52:00,
2013-06-29 10:07:00,64.8,62.7,29.38,SSW,202,0.0,-999.0,93,-99.99,,,0.89,Acu-Link.com,2013-06-29 14:07:00,
2013-06-29 10:22:00,65.5,63.4,29.38,East,90,0.0,-999.0,93,-99.99,,,0.91,Acu-Link.com,2013-06-29 14:22:00,
2013-06-29 10:38:00,65.1,62.7,29.38,East,90,2.7,-999.0,92,-99.99,,,0.92,Acu-Link.com,2013-06-29 14:38:00,
2013-06-29 10:53:00,66.2,64.1,29.38,ENE,67,2.2,-999.0,93,-99.99,,,0.94,Acu-Link.com,2013-06-29 14:53:00,
2013-06-29 11:08:00,66.4,63.7,29.38,NNE,22,2.7,-999.0,91,-99.99,,,0.94,Acu-Link.com,2013-06-29 15:08:00,
2013-06-29 11:23:00,67.3,64.6,29.38,NW,315,0.0,-999.0,91,-99.99,,,0.94,Acu-Link.com,2013-06-29 15:23:00,
2013-06-29 11:39:00,68.4,64.3,29.38,NNE,22,1.6,-999.0,87,-99.99,,,0.96,Acu-Link.com,2013-06-29 15:39:00,
2013-06-29 11:54:00,67.6,64.6,29.39,NNE,22,2.7,-999.0,90,-99.99,,,0.96,Acu-Link.com,2013-06-29 15:54:00,
2013-06-29 12:09:00,67.6,65.2,29.39,WNW,292,2.2,-999.0,92,-99.99,,,0.96,Acu-Link.com,2013-06-29 16:09:00,
2013-06-29 12:24:00,69.1,65.4,29.38,NNE,22,2.7,-999.0,88,-99.99,,,0.96,Acu-Link.com,2013-06-29 16:24:00,
2013-06-29 12:39:00,68.9,64.9,29.39,North,0,2.2,-999.0,87,-99.99,,,0.96,Acu-Link.com,2013-06-29 16:39:00,
2013-06-29 12:55:00,69.4,64.7,29.39,SSW,202,1.6,-999.0,85,-99.99,,,0.96,Acu-Link.com,2013-06-29 16:55:00,
2013-06-29 13:10:00,69.6,65.2,29.39,NW,315,1.1,-999.0,86,-99.99,,,0.96,Acu-Link.com,2013-06-29 17:10:00,
2013-06-29 13:25:00,69.6,64.9,29.39,ENE,67,5.1,-999.0,85,-99.99,,,0.96,Acu-Link.com,2013-06-29 17:25:00,
2013-06-29 13:40:00,68.4,64.0,29.39,West,270,3.1,-999.0,86,-99.99,,,0.96,Acu-Link.com,2013-06-29 17:40:00,
2013-06-29 13:55:00,69.1,64.7,29.40,NNW,337,2.7,-999.0,86,-99.99,,,0.96,Acu-Link.com,2013-06-29 17:55:00,
2013-06-29 14:11:00,68.4,64.0,29.40,West,270,1.6,-999.0,86,-99.99,,,0.96,Acu-Link.com,2013-06-29 18:11:00,
2013-06-29 14:26:00,68.4,64.0,29.41,WNW,292,4.3,-999.0,86,-99.99,,,0.96,Acu-Link.com,2013-06-29 18:26:00,
2013-06-29 14:41:00,68.2,63.5,29.42,ESE,112,2.2,-999.0,85,-99.99,,,0.96,Acu-Link.com,2013-06-29 18:41:00,
2013-06-29 14:56:00,68.7,63.0,29.41,West,270,3.1,-999.0,82,-99.99,,,0.96,Acu-Link.com,2013-06-29 18:56:00,
2013-06-29 15:12:00,70.3,63.5,29.41,WSW,247,3.1,-999.0,79,-99.99,,,0.96,Acu-Link.com,2013-06-29 19:12:00,
2013-06-29 15:27:00,69.4,63.7,29.42,NE,45,1.6,-999.0,82,-99.99,,,0.96,Acu-Link.com,2013-06-29 19:27:00,
2013-06-29 15:42:00,72.1,63.4,29.42,NNE,22,2.2,-999.0,74,-99.99,,,0.96,Acu-Link.com,2013-06-29 19:42:00,
2013-06-29 15:57:00,70.9,61.8,29.43,WSW,247,2.7,-999.0,73,-99.99,,,0.96,Acu-Link.com,2013-06-29 19:57:00,
2013-06-29 16:12:00,73.6,64.0,29.43,West,270,2.2,-999.0,72,-99.99,,,0.96,Acu-Link.com,2013-06-29 20:12:00,
2013-06-29 16:28:00,74.7,63.8,29.43,WSW,247,2.7,-999.0,69,-99.99,,,0.96,Acu-Link.com,2013-06-29 20:28:00,
2013-06-29 16:43:00,72.5,63.3,29.43,WNW,292,2.2,-999.0,73,-99.99,,,0.96,Acu-Link.com,2013-06-29 20:43:00,
2013-06-29 16:58:00,73.9,63.1,29.43,NNW,337,2.7,-999.0,69,-99.99,,,0.96,Acu-Link.com,2013-06-29 20:58:00,
2013-06-29 17:13:00,74.1,62.9,29.43,NE,45,1.1,-999.0,68,-99.99,,,0.96,Acu-Link.com,2013-06-29 21:13:00,
2013-06-29 17:28:00,75.2,62.6,29.44,NW,315,1.1,-999.0,65,-99.99,,,0.96,Acu-Link.com,2013-06-29 21:28:00,
2013-06-29 17:44:00,74.1,62.4,29.44,NE,45,2.2,-999.0,67,-99.99,,,0.96,Acu-Link.com,2013-06-29 21:44:00,
2013-06-29 17:59:00,74.3,62.2,29.44,ENE,67,1.6,-999.0,66,-99.99,,,0.96,Acu-Link.com,2013-06-29 21:59:00,
2013-06-29 18:14:00,72.7,62.3,29.44,NNE,22,1.6,-999.0,70,-99.99,,,0.96,Acu-Link.com,2013-06-29 22:14:00,
2013-06-29 18:29:00,72.7,61.5,29.45,NNE,22,1.6,-999.0,68,-99.99,,,0.96,Acu-Link.com,2013-06-29 22:29:00,
2013-06-29 18:45:00,72.3,61.2,29.45,NE,45,3.1,-999.0,68,-99.99,,,0.96,Acu-Link.com,2013-06-29 22:45:00,
2013-06-29 19:00:00,72.3,60.7,29.45,NE,45,0.0,-999.0,67,-99.99,,,0.96,Acu-Link.com,2013-06-29 23:00:00,
2013-06-29 19:15:00,72.5,60.9,29.46,NE,45,0.0,-999.0,67,-99.99,,,0.96,Acu-Link.com,2013-06-29 23:15:00,
2013-06-29 19:30:00,72.1,60.1,29.47,ENE,67,0.0,-999.0,66,-99.99,,,0.96,Acu-Link.com,2013-06-29 23:30:00,
2013-06-29 19:45:00,72.3,61.6,29.47,ESE,112,0.0,-999.0,69,-99.99,,,0.96,Acu-Link.com,2013-06-29 23:45:00,
2013-06-29 20:01:00,71.1,62.7,29.47,NW,315,0.0,-999.0,75,-99.99,,,0.96,Acu-Link.com,2013-06-30 00:01:00,
2013-06-29 20:16:00,70.0,61.7,29.48,ESE,112,0.0,-999.0,75,-99.99,,,0.96,Acu-Link.com,2013-06-30 00:16:00,
2013-06-29 20:31:00,69.6,62.1,29.48,SSE,157,0.0,-999.0,77,-99.99,,,0.96,Acu-Link.com,2013-06-30 00:31:00,
2013-06-29 20:46:00,68.0,61.9,29.48,ESE,112,0.0,-999.0,81,-99.99,,,0.96,Acu-Link.com,2013-06-30 00:46:00,
2013-06-29 21:01:00,66.7,62.1,29.48,NW,315,0.0,-999.0,85,-99.99,,,0.96,Acu-Link.com,2013-06-30 01:01:00,
2013-06-29 21:17:00,65.7,61.4,29.48,SSW,202,0.0,-999.0,86,-99.99,,,0.96,Acu-Link.com,2013-06-30 01:17:00,
2013-06-29 21:32:00,64.4,61.7,29.49,South,180,0.0,-999.0,91,-99.99,,,0.96,Acu-Link.com,2013-06-30 01:32:00,
2013-06-29 21:47:00,64.4,61.7,29.50,South,180,0.0,-999.0,91,-99.99,,,0.96,Acu-Link.com,2013-06-30 01:47:00,
2013-06-29 22:02:00,64.0,61.4,29.50,West,270,0.0,-999.0,91,-99.99,,,0.96,Acu-Link.com,2013-06-30 02:02:00,
2013-06-29 22:18:00,63.9,61.5,29.51,South,180,0.0,-999.0,92,-99.99,,,0.96,Acu-Link.com,2013-06-30 02:18:00,
2013-06-29 22:33:00,63.5,61.1,29.51,West,270,0.0,-999.0,92,-99.99,,,0.96,Acu-Link.com,2013-06-30 02:33:00,
2013-06-29 22:48:00,63.3,61.3,29.52,West,270,0.0,-999.0,93,-99.99,,,0.96,Acu-Link.com,2013-06-30 02:48:00,
2013-06-29 23:03:00,63.0,61.2,29.52,West,270,0.0,-999.0,94,-99.99,,,0.96,Acu-Link.com,2013-06-30 03:03:00,
2013-06-29 23:18:00,62.8,61.3,29.52,West,270,0.0,-999.0,95,-99.99,,,0.96,Acu-Link.com,2013-06-30 03:18:00,
2013-06-29 23:34:00,63.0,61.5,29.52,West,270,0.0,-999.0,95,-99.99,,,0.96,Acu-Link.com,2013-06-30 03:34:00,
2013-06-29 23:49:00,63.1,61.7,29.53,West,270,0.0,-999.0,95,-99.99,,,0.96,Acu-Link.com,2013-06-30 03:49:00,